createdAt,value
2023-01-18T00:00:17.664Z,86.25
2023-01-18T00:05:22.487Z,87.19
2023-01-18T00:10:24.168Z,88.60
2023-01-18T00:15:25.926Z,88.72
2023-01-18T00:20:29.014Z,88.43
2023-01-18T00:25:30.845Z,89.08
2023-01-18T00:30:32.593Z,90.44
2023-01-18T00:35:35.664Z,92.35
2023-01-18T00:40:37.402Z,91.86
2023-01-18T00:45:40.940Z,91.29
2023-01-18T00:50:44.231Z,90.02
2023-01-18T00:55:46.981Z,89.10
2023-01-18T01:00:48.965Z,88.82
2023-01-18T01:06:10.611Z,88.90
2023-01-18T01:11:12.584Z,89.67
2023-01-18T01:16:32.840Z,89.73
2023-01-18T01:21:54.456Z,90.46
2023-01-18T01:26:56.179Z,90.32
2023-01-18T01:31:58.003Z,88.82
2023-01-18T01:37:01.045Z,88.93
2023-01-18T01:42:02.809Z,88.58
2023-01-18T01:47:05.234Z,89.49
2023-01-18T01:52:09.140Z,89.45
2023-01-18T01:57:12.488Z,89.12
2023-01-18T02:02:14.352Z,88.78
2023-01-18T02:07:17.448Z,88.90
2023-01-18T02:12:19.184Z,90.01
2023-01-18T02:17:38.508Z,89.75
2023-01-18T02:22:59.777Z,89.10
2023-01-18T02:28:09.343Z,88.78
2023-01-18T02:33:14.211Z,88.95
2023-01-18T02:38:16.771Z,89.29
2023-01-18T02:43:38.387Z,89.58
2023-01-18T02:48:41.638Z,88.86
2023-01-18T02:53:44.166Z,88.69
2023-01-18T02:58:47.628Z,89.31
2023-01-18T03:03:49.379Z,90.05
2023-01-18T03:08:51.832Z,89.94
2023-01-18T03:13:59.388Z,91.46
2023-01-18T03:19:04.123Z,91.72
2023-01-18T03:24:07.004Z,91.86
2023-01-18T03:29:28.827Z,92.23
2023-01-18T03:34:32.367Z,93.79
2023-01-18T03:39:34.920Z,94.57
2023-01-18T03:44:39.851Z,94.21
2023-01-18T03:49:41.614Z,92.71
2023-01-18T03:54:52.320Z,92.48
2023-01-18T03:59:55.336Z,93.38
2023-01-18T04:04:57.904Z,93.28
2023-01-18T04:09:59.658Z,93.75
2023-01-18T04:15:02.788Z,93.88
2023-01-18T04:20:06.155Z,93.93
2023-01-18T04:25:08.597Z,93.13
2023-01-18T04:30:12.517Z,93.14
2023-01-18T04:35:14.271Z,93.96
2023-01-18T04:40:16.022Z,93.19
2023-01-18T04:45:19.645Z,91.40
2023-01-18T04:50:21.469Z,90.25
2023-01-18T04:55:23.137Z,90.74
2023-01-18T05:00:26.201Z,91.14
2023-01-18T05:05:27.981Z,91.47
2023-01-18T05:10:29.729Z,91.98
2023-01-18T05:15:34.824Z,91.29
2023-01-18T05:20:36.554Z,91.23
2023-01-18T05:25:39.092Z,90.42
2023-01-18T05:30:42.549Z,90.89
2023-01-18T05:35:48.451Z,90.51
2023-01-18T05:40:54.826Z,90.81
2023-01-18T05:45:57.974Z,90.87
2023-01-18T05:50:59.670Z,91.05
2023-01-18T05:56:02.707Z,91.06
2023-01-18T06:01:07.666Z,93.90
2023-01-18T06:06:09.415Z,92.75
2023-01-18T06:11:11.161Z,91.34
2023-01-18T06:16:14.502Z,91.21
2023-01-18T06:21:17.939Z,91.67
2023-01-18T06:26:19.762Z,90.11
2023-01-18T06:31:23.265Z,89.19
2023-01-18T06:36:24.979Z,89.75
2023-01-18T06:41:26.636Z,90.09
2023-01-18T06:46:29.641Z,89.29
2023-01-18T06:51:31.308Z,89.75
2023-01-18T06:56:33.007Z,88.61
2023-01-18T07:01:36.145Z,89.10
2023-01-18T07:06:38.331Z,90.26
2023-01-18T07:12:04.711Z,90.88
2023-01-18T07:17:32.177Z,90.13
2023-01-18T07:22:34.241Z,90.27
2023-01-18T07:27:36.149Z,90.16
2023-01-18T07:32:47.028Z,90.16
2023-01-18T07:37:52.950Z,89.89
2023-01-18T07:42:59.025Z,89.04
2023-01-18T07:48:02.392Z,89.06
2023-01-18T07:53:09.150Z,89.40
2023-01-18T07:58:12.181Z,89.22
2023-01-18T08:03:21.064Z,88.78
2023-01-18T08:08:27.603Z,89.24
2023-01-18T08:13:29.560Z,88.74
2023-01-18T08:18:35.990Z,88.39
2023-01-18T08:23:39.061Z,87.84
2023-01-18T08:28:41.500Z,86.58
2023-01-18T08:33:49.927Z,86.13
2023-01-18T08:38:52.913Z,85.14
2023-01-18T08:44:12.954Z,85.05
2023-01-18T08:49:27.472Z,84.53
2023-01-18T08:54:54.011Z,82.96
2023-01-18T09:00:23.497Z,82.50
2023-01-18T09:05:44.009Z,81.50
2023-01-18T09:10:53.861Z,79.76
2023-01-18T09:16:14.258Z,77.90
2023-01-18T09:21:24.325Z,75.71
2023-01-18T09:26:53.686Z,74.23
2023-01-18T09:32:27.405Z,72.03
2023-01-18T09:37:31.418Z,68.43
2023-01-18T09:42:35.944Z,66.92
2023-01-18T09:47:41.508Z,64.19
2023-01-18T09:52:47.705Z,61.48
2023-01-18T09:57:59.417Z,59.68
2023-01-18T10:03:04.180Z,56.73
2023-01-18T10:08:13.386Z,55.79
2023-01-18T10:13:32.949Z,55.57
2023-01-18T10:18:39.147Z,53.67
2023-01-18T10:23:44.353Z,51.33
2023-01-18T10:28:48.835Z,51.25
2023-01-18T10:33:52.059Z,54.32
2023-01-18T10:38:55.484Z,56.62
2023-01-18T10:43:57.175Z,59.26
2023-01-18T10:48:59.220Z,61.49
2023-01-18T10:54:17.647Z,63.83
2023-01-18T10:59:24.930Z,65.52
2023-01-18T11:04:27.817Z,67.68
2023-01-18T11:09:48.354Z,67.85
2023-01-18T11:14:50.030Z,69.33
2023-01-18T11:20:05.377Z,69.10
2023-01-18T11:25:17.199Z,70.01
2023-01-18T11:30:21.135Z,71.62
2023-01-18T11:35:24.919Z,72.37
2023-01-18T11:40:32.797Z,71.77
2023-01-18T11:45:36.284Z,72.19
2023-01-18T11:50:40.056Z,73.17
2023-01-18T11:55:47.513Z,73.91
2023-01-18T12:00:54.444Z,73.82
2023-01-18T12:05:58.071Z,76.23
2023-01-18T12:11:06.835Z,76.89
2023-01-18T12:16:12.941Z,76.83
2023-01-18T12:21:16.757Z,76.95
2023-01-18T12:26:25.977Z,75.47
2023-01-18T12:31:35.584Z,74.67
2023-01-18T12:36:47.173Z,74.42
2023-01-18T12:41:55.100Z,72.63
2023-01-18T12:47:06.008Z,70.65
2023-01-18T12:52:18.496Z,69.00
2023-01-18T12:57:22.241Z,68.69
2023-01-18T13:02:27.810Z,67.78
2023-01-18T13:07:32.341Z,66.10
2023-01-18T13:12:35.779Z,66.54
2023-01-18T13:17:39.911Z,66.67
2023-01-18T13:22:44.184Z,65.38
2023-01-18T13:27:57.913Z,65.97
2023-01-18T13:32:59.833Z,65.34
2023-01-18T13:38:02.606Z,65.51
2023-01-18T13:43:06.252Z,64.82
2023-01-18T13:48:41.393Z,64.36
2023-01-18T13:53:49.786Z,65.09
2023-01-18T13:58:57.772Z,65.94
2023-01-18T14:04:06.642Z,66.87
2023-01-18T14:09:09.451Z,67.67
2023-01-18T14:14:27.266Z,67.97
2023-01-18T14:19:29.289Z,68.50
2023-01-18T14:24:38.627Z,68.35
2023-01-18T14:29:44.107Z,68.70
2023-01-18T14:34:45.956Z,69.41
2023-01-18T14:39:47.647Z,69.66
2023-01-18T14:44:58.154Z,69.91
2023-01-18T14:50:01.553Z,70.17
2023-01-18T14:55:04.397Z,69.97
2023-01-18T15:00:15.152Z,70.47
2023-01-18T15:05:17.661Z,71.14
2023-01-18T15:10:19.871Z,71.95
2023-01-18T15:15:27.708Z,73.15
2023-01-18T15:20:29.524Z,74.05
2023-01-18T15:25:32.361Z,74.37
2023-01-18T15:30:35.695Z,76.82
2023-01-18T15:35:37.575Z,78.14
2023-01-18T15:40:43.250Z,78.03
2023-01-18T15:45:53.854Z,78.62
2023-01-18T15:50:56.629Z,79.11
2023-01-18T15:55:59.552Z,79.42
2023-01-18T16:01:03.600Z,79.81
2023-01-18T16:06:11.279Z,80.37
2023-01-18T16:11:25.669Z,80.82
2023-01-18T16:16:28.748Z,81.00
2023-01-18T16:21:40.254Z,81.70
2023-01-18T16:26:41.996Z,82.01
2023-01-18T16:31:45.036Z,82.17
2023-01-18T16:36:46.886Z,81.97
2023-01-18T16:41:52.503Z,82.38
2023-01-18T16:46:55.727Z,82.87
2023-01-18T16:51:57.676Z,83.12
2023-01-18T16:56:59.359Z,83.08
2023-01-18T17:02:02.533Z,83.85
2023-01-18T17:07:06.598Z,84.26
2023-01-18T17:12:08.523Z,84.11
2023-01-18T17:17:11.619Z,83.83
2023-01-18T17:22:13.523Z,83.43
2023-01-18T17:27:15.317Z,83.22
2023-01-18T17:32:18.740Z,82.65
2023-01-18T17:37:20.494Z,82.21
2023-01-18T17:42:29.854Z,81.99
2023-01-18T17:47:34.399Z,82.05
2023-01-18T17:52:37.501Z,81.93
2023-01-18T17:57:39.553Z,81.38
2023-01-18T18:02:43.240Z,81.15
2023-01-18T18:07:45.283Z,80.89
2023-01-18T18:12:47.236Z,80.88
2023-01-18T18:17:50.840Z,81.06
2023-01-18T18:22:52.530Z,81.15
2023-01-18T18:27:54.210Z,80.93
2023-01-18T18:32:57.301Z,81.02
2023-01-18T18:37:59.214Z,81.30
2023-01-18T18:43:02.859Z,81.14
2023-01-18T18:48:06.837Z,81.38
2023-01-18T18:53:08.681Z,80.96
2023-01-18T18:58:10.430Z,81.25
2023-01-18T19:03:13.580Z,81.26
2023-01-18T19:08:15.283Z,81.43
2023-01-18T19:13:17.155Z,81.70
2023-01-18T19:18:20.251Z,81.62
2023-01-18T19:23:22.068Z,81.59
2023-01-18T19:28:24.299Z,81.82
2023-01-18T19:33:27.332Z,82.27
2023-01-18T19:38:29.360Z,82.48
2023-01-18T19:43:31.031Z,82.70
2023-01-18T19:48:34.402Z,83.08
2023-01-18T19:53:36.100Z,82.52
2023-01-18T19:58:37.858Z,82.90
2023-01-18T20:03:41.001Z,83.28
2023-01-18T20:08:42.815Z,83.61
2023-01-18T20:13:48.438Z,83.67
2023-01-18T20:18:51.523Z,83.47
2023-01-18T20:23:55.993Z,83.47
2023-01-18T20:28:57.715Z,83.19
2023-01-18T20:34:00.829Z,82.87
2023-01-18T20:39:02.736Z,83.23
2023-01-18T20:44:04.750Z,83.13
2023-01-18T20:49:08.568Z,85.01
2023-01-18T20:54:10.792Z,84.20
2023-01-18T20:59:12.501Z,82.94
2023-01-18T21:04:15.529Z,82.25
2023-01-18T21:09:17.224Z,81.96
2023-01-18T21:14:18.949Z,81.88
2023-01-18T21:19:22.009Z,81.97
2023-01-18T21:24:23.748Z,81.86
2023-01-18T21:29:25.503Z,81.85
2023-01-18T21:34:28.637Z,81.02
2023-01-18T21:39:30.420Z,80.57
2023-01-18T21:44:50.658Z,79.84
2023-01-18T21:50:17.405Z,79.57
2023-01-18T21:55:19.604Z,79.06
2023-01-18T22:00:22.122Z,78.80
2023-01-18T22:05:27.041Z,78.53
2023-01-18T22:10:28.920Z,78.46
2023-01-18T22:15:30.794Z,78.12
2023-01-18T22:20:33.990Z,78.09
2023-01-18T22:25:35.699Z,77.97
2023-01-18T22:30:37.592Z,77.84
2023-01-18T22:35:40.914Z,77.82
2023-01-18T22:40:42.782Z,77.64
2023-01-18T22:45:53.714Z,77.85
2023-01-18T22:50:57.883Z,78.05
2023-01-18T22:56:01.512Z,77.90
2023-01-18T23:01:04.117Z,77.69
2023-01-18T23:06:08.331Z,77.86
2023-01-18T23:11:10.910Z,78.06
2023-01-18T23:16:35.500Z,77.84
2023-01-18T23:21:39.273Z,78.26
2023-01-18T23:26:41.002Z,78.54
2023-01-18T23:31:42.790Z,78.38
2023-01-18T23:36:45.865Z,78.54
2023-01-18T23:42:06.352Z,78.49
2023-01-18T23:47:26.667Z,79.28
2023-01-18T23:52:48.342Z,79.35
2023-01-18T23:57:50.051Z,79.66
